Terminal Aerodrome Forecast
Issued by NWS

Home | Current Version | Previous Version | Text Only | Print | Product List | Glossary On
Versions: 1 2 3 4 5 6 7 8 9 10 11 12 13 14 15 16 17 18 19 20 21
000
FTUS44 KOUN 291722
TAFWWR
TAF
KWWR 291722Z 2918/3018 06013G21KT P6SM VCSH SCT030
     FM292000 05007KT P6SM SCT080
      TEMPO 3000/3004 3SM -TSRA BKN040CB
     FM300400 04007KT P6SM BKN100 OVC250
      TEMPO 3004/3008 4SM -TSRA BKN050CB
     FM300800 03005KT P6SM SCT050 OVC100 PROB30 3008/3014 4SM -TSRA
      BKN030CB OVC080=

USA.gov is the U.S. government's official web portal to all federal, state and local government web resources and services.